METAR stanice u blizini

 

LYBE - Beograd / Surčin, Srbija
Ažurirano: 18/04/2024 22:00
Vedro
Vedro
 Pravac vetra JI
Vetar: JI 6 km/h
Temperatura: 8°C
Tačka rose: 6°C
Vlažnost: 87%
Pritisak: 1012 hPa
Pregled: Vedro
Vidljivost: greater than 10 km
2024/04/18 20:00 LYBE 182000Z 14003KT 110V180 CAVOK 08/06 Q1012 NOSIG
LYBT - Beograd / Batajnica, Srbija
Ažurirano: 18/04/2024 22:00
Vedro
Vedro
 Pravac vetra JJI
Vetar: JJI 7 km/h
Temperatura: 7°C
Osećaj hladnoće: 6°C
Tačka rose: 5°C
Vlažnost: 87%
Pritisak: 1012 hPa
Pregled: Vedro
Vidljivost: greater than 10 km
2024/04/18 20:00 LYBT 182000Z 16004KT CAVOK 07/05 Q1012 NOSIG
LYVR - Vršac, Srbija
Ažurirano: 18/04/2024 22:00
Vedro
Vedro
 Pravac vetra J
Vetar: J 4 km/h
Temperatura: 4°C
Tačka rose: 4°C
Vlažnost: 100%
Pritisak: 1012 hPa
Pregled: Vedro
Vidljivost: greater than 10 km
2024/04/18 20:00 LYVR 182000Z AUTO 17002KT CAVOK 04/04 Q1012
 
LYKV - Lađevci, Srbija
Ažurirano: 18/04/2024 22:00
Few Clouds
Few Clouds
 Pravac vetra ISI
Vetar: ISI 4 km/h
Temperatura: 5°C
Tačka rose: 3°C
Vlažnost: 87%
Pritisak: 1013 hPa
Oblaci: Few Clouds
Vidljivost: 10 km
Cloud details: Few Clouds 1219 m
2024/04/18 20:00 LYKV 182000Z 06002KT 9999 FEW040 05/03 Q1013 NOSIG
LYNI - Niš, Srbija
Ažurirano: 18/04/2024 22:00
Vedro
Vedro
 Pravac vetra varies
Vetar: varies 4 km/h
Temperatura: 8°C
Tačka rose: 4°C
Vlažnost: 76%
Pritisak: 1013 hPa
Pregled: Vedro
Vidljivost: greater than 10 km
2024/04/18 20:00 LYNI 182000Z VRB02KT CAVOK 08/04 Q1013 NOSIG
BKPR - Priština, Srbija
Ažurirano: 18/04/2024 22:00
Mostly Cloudy
Mostly Cloudy
 Pravac vetra S
Vetar: S 11 km/h
Temperatura: 8°C
Osećaj hladnoće: 6°C
Tačka rose: 3°C
Vlažnost: 71%
Pritisak: 1011 hPa
Oblaci: Mostly Cloudy
Vidljivost: 10 km
Cloud details: Partly Cloudy 914 m
Mostly Cloudy 1524 m
2024/04/18 20:00 BKPR 182000Z 35006KT 9999 SCT030 BKN050 08/03 Q1011 NOSIG
 
LHPP - Pecs / Pogany, Hungary
Ažurirano: 18/04/2024 21:45
Vedro
Vedro
 Pravac vetra SZ
Vetar: SZ 15 km/h
Temperatura: 6°C
Osećaj hladnoće: 3°C
Tačka rose: 1°C
Vlažnost: 71%
Pritisak: 1013 hPa
Pregled: Vedro
Vidljivost: greater than 10 km
2024/04/18 19:45 LHPP 181945Z AUTO 32008KT CAVOK 06/01 Q1013
LHUD - Szeged, Hungary
Ažurirano: 04/07/2019 01:45
NOT Current
Vedro
Vedro
 Pravac vetra S
Vetar: S 7 km/h
Temperatura: 18°C
Tačka rose: 13°C
Vlažnost: 73%
Pritisak: 1019 hPa
Pregled: Vedro
Vidljivost: greater than 10 km
2019/07/03 23:45 LHUD 032345Z 35004KT CAVOK 18/13 Q1019
LRTR - Timisoara, Romania
Ažurirano: 18/04/2024 22:00
Vedro
Vedro
 Pravac vetra varies
Vetar: varies 4 km/h
Temperatura: 6°C
Tačka rose: 4°C
Vlažnost: 87%
Pritisak: 1011 hPa
Pregled: Vedro
Vidljivost: greater than 10 km
2024/04/18 20:00 LRTR 182000Z VRB02KT CAVOK 06/04 Q1011 NOSIG
 
LRCV - Craiova, Romania
Ažurirano: 18/04/2024 22:00
Vedro
Vedro
 Pravac vetra ZSZ
Vetar: ZSZ 24 km/h
Temperatura: 7°C
Osećaj hladnoće: 3°C
Tačka rose: 3°C
Vlažnost: 76%
Pritisak: 1009 hPa
Pregled: Vedro
Vidljivost: greater than 10 km
2024/04/18 20:00 LRCV 182000Z 29013KT CAVOK 07/03 Q1009
LBSF - Sofia, Bulgaria
Ažurirano: 18/04/2024 22:00
Partly Cloudy
Partly Cloudy
 Pravac vetra Z
Vetar: Z 19 km/h
Temperatura: 6°C
Osećaj hladnoće: 3°C
Tačka rose: 1°C
Vlažnost: 71%
Pritisak: 1011 hPa
Oblaci: Partly Cloudy
Vidljivost: 10 km
Cloud details: Partly Cloudy 2591 m
2024/04/18 20:00 LBSF 182000Z AUTO 27010KT 9999 SCT085/// 06/01 Q1011 NOSIG
LWSK - Skoplje, Makedonija
Ažurirano: 18/04/2024 21:50
Partly Cloudy
Partly Cloudy
 Pravac vetra JI
Vetar: JI 6 km/h
Temperatura: 5°C
Tačka rose: 5°C
Vlažnost: 100%
Pritisak: 1011 hPa
Oblaci: Partly Cloudy
Vidljivost: 10 km
Cloud details: Few Clouds 1189 m
Partly Cloudy 2377 m
2024/04/18 19:50 LWSK 181950Z 13003KT 9999 FEW039 SCT078 05/05 Q1011 NOSIG
 
LYPG - Podgorica, Crna Gora
Ažurirano: 18/04/2024 22:00
Partly Cloudy
Partly Cloudy
 Pravac vetra SSZ
Vetar: SSZ 6 km/h
Temperatura: 12°C
Tačka rose: 6°C
Vlažnost: 67%
Pritisak: 1011 hPa
Oblaci: Partly Cloudy
Vidljivost: 10 km
Cloud details: Partly Cloudy 1219 m
2024/04/18 20:00 LYPG 182000Z 33003KT 9999 SCT040 12/06 Q1011 NOSIG
LQSA - Sarajevo, Bosna i Hercegovina
Ažurirano: 18/04/2024 22:00
Few Clouds
Few Clouds
 Pravac vetra JJI
Vetar: JJI 6 km/h
Temperatura: 5°C
Tačka rose: 2°C
Vlažnost: 81%
Pritisak: 1012 hPa
Oblaci: Few Clouds
Vidljivost: 10 km
Cloud details: Few Clouds 2195 m
2024/04/18 20:00 LQSA 182000Z 15003KT 110V190 9999 FEW072 05/02 Q1012 NOSIG
LDOS - Osijek, Hrvatksa
Ažurirano: 18/04/2024 22:00
Vedro
Vedro
 Pravac vetra ZSZ
Vetar: ZSZ 11 km/h
Temperatura: 5°C
Osećaj hladnoće: 2°C
Tačka rose: 3°C
Vlažnost: 87%
Pritisak: 1013 hPa
Pregled: Vedro
Vidljivost: greater than 10 km
2024/04/18 20:00 LDOS 182000Z 29006KT CAVOK 05/03 Q1013